• Join FlightAware (Why Join?)
  • Login
  • US Flag 
08:30PM EDT


 

Airport Tracker/Info


-or-


 

Live Flight TrackerFlight Track Log ✈ DAL930 ✈ 15-Apr-2013 ✈ KLGA - KFLL

Flight Track Log - Related Links

Times and Time Zones

All times are in EDT time to prevent confusion due to time zone crossing. See the DAL930 flight status page for this flight to view local times or setup timezone preferences in your user account.

Time Position Orientation Groundspeed Altitude Reporting Facility
EDT Latitude Longitude Course Direction KTS MPH feet Rate Location/Type
11:38AM 40.7500 -73.8500 217° Southwest 168 193 1,400  Level New York TRACON
11:39AM 40.7000 -73.8333 166° South 217 250 3,500 2,220 Climbing New York TRACON
11:40AM 40.6500 -73.8667 207° Southwest 235 270 5,900 2,340 Climbing New York TRACON
11:41AM 40.5833 -73.9000 201° Southwest 285 328 8,200 1,860 Climbing New York TRACON
11:44AM 40.1122 -74.1878 217° Southwest  Level FlightAware Approximate
11:44AM 40.3911 -74.0519 211° Southwest 337 388 12,500  Level New York Center
11:45AM 40.3000 -74.1047 204° Southwest 384 442 14,400 2,220 Climbing New York Center
11:46AM 40.1836 -74.1669 202° Southwest 411 473 17,000 2,040 Climbing New York Center
11:46AM 40.1200 -74.1997 202° Southwest 415 478 17,800 1,620 Climbing Washington Center
11:47AM 40.0189 -74.2750 210° Southwest 497 572 19,700 1,620 Climbing Washington Center
11:48AM 39.9283 -74.3794 222° Southwest 448 516 21,100 1,560 Climbing Washington Center
11:49AM 39.8375 -74.4864 222° Southwest 448 516 22,900 1,620 Climbing Washington Center
11:50AM 39.7447 -74.5931 221° Southwest 448 516 24,400 1,500 Climbing Washington Center
11:51AM 39.6456 -74.7103 222° Southwest 448 516 26,000 1,740 Climbing Washington Center
11:52AM 39.5547 -74.8164 222° Southwest 442 509 27,900 1,620 Climbing Washington Center
11:53AM 39.4700 -74.9167 222° Southwest 437 503 29,300 1,020 Climbing Washington Center
11:54AM 39.3789 -75.0225 222° Southwest 437 503 30,000 1,080 Climbing Washington Center
11:55AM 39.2853 -75.1169 218° Southwest 437 503 31,500 960 Climbing Washington Center
11:56AM 39.1731 -75.1686 200° South 430 495 32,000 240 Climbing Washington Center
11:57AM 39.0544 -75.2119 196° South 432 497 32,000  Level Washington Center
11:58AM 38.9378 -75.2661 200° South 444 511 32,000  Level Washington Center
11:59AM 38.8192 -75.3144 198° South 444 511 32,000  Level Washington Center
12:00PM 38.7003 -75.3656 199° South 444 511 32,000  Level Washington Center
12:01PM 38.5817 -75.4139 198° South 444 511 32,000  Level Washington Center
12:02PM 38.4628 -75.4644 198° South 444 511 32,000  Level Washington Center
12:03PM 38.3419 -75.5122 197° South 449 517 32,000  Level Washington Center
12:04PM 38.2336 -75.5786 206° Southwest 444 511 32,000  Level Washington Center
12:05PM 38.1211 -75.6497 206° Southwest 449 517 32,000  Level Washington Center
12:06PM 38.0250 -75.7208 210° Southwest 449 517 32,000  Level Washington Center
12:07PM 37.9103 -75.7864 204° Southwest 449 517 32,000  Level Washington Center
12:08PM 37.7808 -75.8625 205° Southwest 455 524 32,000  Level Washington Center
12:09PM 37.6783 -75.9328 208° Southwest 460 529 32,000  Level Washington Center
12:10PM 37.5656 -76.0031 206° Southwest 460 529 32,000  Level Washington Center
12:11PM 37.4528 -76.0731 206° Southwest 460 529 32,000  Level Washington Center
12:12PM 37.3378 -76.1403 205° Southwest 460 529 32,000  Level Washington Center
12:13PM 37.2081 -76.2125 204° Southwest 465 535 32,000  Level Washington Center
12:14PM 37.0928 -76.2844 206° Southwest 465 535 32,000  Level Washington Center
12:15PM 36.9797 -76.3511 205° Southwest 460 529 32,000  Level Washington Center
12:16PM 36.8667 -76.4175 205° Southwest 460 529 32,000  Level Washington Center
12:17PM 36.7494 -76.4811 204° Southwest 460 529 32,000  Level Washington Center
12:18PM 36.6281 -76.5339 199° South 460 529 32,000  Level Washington Center
12:19PM 36.5067 -76.5867 199° South 465 535 32,000 -60 Level Washington Center
12:20PM 36.3853 -76.6369 198° South 465 535 31,900  Descending Washington Center
12:21PM 36.2658 -76.6842 198° South 465 535 32,000  Climbing Washington Center
12:22PM 36.1486 -76.7367 200° South 465 535 32,000  Level Washington Center
12:23PM 36.0311 -76.7864 199° South 465 535 32,000  Level Washington Center
12:24PM 35.9097 -76.8383 199° South 465 535 32,000  Level Washington Center
12:25PM 35.7922 -76.8878 199° South 465 535 32,000  Level Washington Center
12:26PM 35.6728 -76.9344 198° South 459 528 32,000  Level Washington Center
12:27PM 35.5617 -76.9861 201° Southwest 447 514 32,000  Level Washington Center
12:28PM 35.4442 -77.0350 199° South 447 514 32,000  Level Washington Center
12:29PM 35.3247 -77.0864 199° South 447 514 32,000  Level Washington Center
12:30PM 35.2031 -77.1325 197° South 447 514 32,000  Level Washington Center
12:31PM 35.0856 -77.1811 199° South 447 514 32,000  Level Washington Center
12:32PM 34.9639 -77.2319 199° South 452 520 32,000  Level Washington Center
12:33PM 34.8422 -77.2825 199° South 457 526 32,000  Level Washington Center
12:34PM 34.7308 -77.3258 198° South 462 532 32,000  Level Washington Center
12:35PM 34.6111 -77.3811 201° Southwest 467 537 32,000  Level Washington Center
12:36PM 34.4853 -77.4314 198° South 467 537 32,000  Level Washington Center
12:37PM 34.3636 -77.4789 198° South 467 537 32,000  Level Washington Center
12:38PM 34.2397 -77.5289 198° South 467 537 32,000  Level Washington Center
12:39PM 34.1178 -77.5761 198° South 467 537 32,000  Level Washington Center
12:40PM 34.0447 -77.6047 198° South 464 534 32,000  Level Jacksonville Center
12:41PM 33.9236 -77.6522 198° South 458 527 32,000  Level Jacksonville Center
12:42PM 33.8006 -77.6994 198° South 458 527 32,000  Level Jacksonville Center
12:43PM 33.6772 -77.7492 199° South 458 527 32,000  Level Jacksonville Center
12:44PM 33.5747 -77.7925 199° South 464 534 32,000  Level Jacksonville Center
12:45PM 33.4433 -77.8447 198° South 464 534 32,000  Level Jacksonville Center
12:46PM 33.3219 -77.8914 198° South 464 534 32,000  Level Jacksonville Center
12:47PM 33.1989 -77.9406 198° South 464 534 32,000  Level Jacksonville Center
12:48PM 33.0797 -77.9892 199° South 464 534 32,000  Level Jacksonville Center
12:49PM 32.9583 -78.0331 197° South 459 528 32,000  Level Jacksonville Center
12:50PM 32.8369 -78.0817 199° South 454 522 32,000  Level Jacksonville Center
12:51PM 32.7178 -78.1275 198° South 454 522 32,000  Level Jacksonville Center
12:52PM 32.5961 -78.1733 198° South 454 522 32,000  Level Jacksonville Center
12:53PM 32.4769 -78.2189 198° South 454 522 32,000  Level Jacksonville Center
12:54PM 32.3556 -78.2669 198° South 454 522 32,000  Level Jacksonville Center
12:55PM 32.2361 -78.3147 199° South 459 528 32,000  Level Jacksonville Center
12:56PM 32.1147 -78.3625 198° South 459 528 32,000  Level Jacksonville Center
12:57PM 31.9933 -78.4100 198° South 459 528 32,000  Level Jacksonville Center
12:58PM 31.8736 -78.4525 197° South 453 521 32,000  Level Jacksonville Center
12:59PM 31.7481 -78.5025 199° South 458 527 32,000  Level Jacksonville Center
01:00PM 31.6244 -78.5500 198° South 458 527 32,000  Level Jacksonville Center
01:01PM 31.5008 -78.5972 198° South 464 534 32,000 -720 Level Jacksonville Center
01:02PM 31.3814 -78.6417 198° South 458 527 30,600 -1,020 Descending Jacksonville Center
01:03PM 31.2597 -78.6858 197° South 458 527 30,000 -360 Descending Jacksonville Center
01:04PM 31.1339 -78.7353 199° South 458 527 30,000  Level Jacksonville Center
01:05PM 30.9958 -78.7875 198° South 465 535 30,000  Level Jacksonville Center
01:06PM 30.8678 -78.8317 196° South 478 550 30,000  Level Jacksonville Center
01:07PM 30.7419 -78.8806 198° South 481 554 30,000  Level Jacksonville Center
01:08PM 30.6203 -78.9292 199° South 476 548 30,000  Level Jacksonville Center
01:09PM 30.4981 -78.9761 198° South 484 557 30,000  Level Miami Center
01:10PM 30.3639 -79.0192 195° South 463 533 30,000  Level Miami Center
01:11PM 30.2364 -79.0500 192° South 477 549 30,000  Level Miami Center
01:12PM 30.1067 -79.0833 193° South 482 555 30,000  Level Miami Center
01:13PM 29.9808 -79.1264 197° South 482 555 30,000  Level Miami Center
01:14PM 29.8511 -79.1547 191° South 477 549 30,000  Level Miami Center
01:15PM 29.7275 -79.1928 195° South 467 537 30,000  Level Miami Center
01:16PM 29.6019 -79.2208 191° South 467 537 30,000  Level Miami Center
01:17PM 29.4681 -79.2442 189° South 474 545 30,000  Level Miami Center
01:18PM 29.3467 -79.2772 193° South 468 539 30,000  Level Miami Center
01:19PM 29.2228 -79.3103 193° South 468 539 30,000  Level Miami Center
01:20PM 29.0992 -79.3431 193° South 468 539 30,000  Level Miami Center
01:21PM 28.9736 -79.3758 193° South 463 533 30,000  Level Miami Center
01:22PM 28.8497 -79.4064 192° South 463 533 30,000  Level Miami Center
01:23PM 28.7242 -79.4342 191° South 463 533 30,000  Level Miami Center
01:24PM 28.5983 -79.4667 193° South 463 533 30,000  Level Miami Center
01:25PM 28.4683 -79.4967 191° South 468 539 30,000  Level Miami Center
01:26PM 28.3447 -79.5292 193° South 468 539 30,000  Level Miami Center
01:27PM 28.2167 -79.5592 192° South 468 539 30,000  Level Miami Center
01:28PM 28.0931 -79.5892 192° South 468 539 30,000  Level Miami Center
01:29PM 27.9672 -79.6192 192° South 468 539 30,000  Level Miami Center
01:30PM 27.8436 -79.6489 192° South 468 539 30,000  Level Miami Center
01:31PM 27.7322 -79.6792 194° South 463 533 30,000 -60 Level Miami Center
01:32PM 27.6064 -79.7089 192° South 463 533 29,900 -1,500 Descending Miami Center
01:33PM 27.4700 -79.7406 192° South 453 521 27,100 -2,700 Descending Miami Center
01:34PM 27.3442 -79.7725 193° South 469 540 24,500 -2,280 Descending Miami Center
01:35PM 27.2128 -79.7692 179° South 469 540 22,600 -2,100 Descending Miami Center
01:36PM 27.1003 -79.7500 171° South 455 524 20,300 -2,400 Descending Miami Center
01:37PM 26.9817 -79.7283 171° South 450 518 17,900 -2,400 Descending Miami Center
01:38PM 26.8608 -79.7069 171° South 415 478 15,500 -1,980 Descending Miami Center
01:38PM 26.8214 -79.7036 176° South 399 459 15,300 -600 Descending Miami Center
01:39PM 26.7653 -79.6928 170° South 390 449 15,000 -1,860 Descending Miami Center
01:40PM 26.6642 -79.7300 198° South 368 423 12,500 -2,640 Descending Miami Center
01:41PM 26.5650 -79.7764 203° Southwest 376 433 9,300 -2,160 Descending Miami Center
01:42PM 26.4661 -79.8203 202° Southwest 319 367 8,000 -660 Descending Miami Center
01:43PM 26.4006 -79.8511 203° Southwest 306 352 8,000  Level Miami Center
01:44PM 26.3328 -79.9075 217° Southwest 281 323 8,000 -540 Level Miami Center
01:45PM 26.2814 -79.9569 221° Southwest 276 318 7,000 -1,020 Descending Miami Center
01:46PM 26.2197 -80.0133 219° Southwest 269 310 6,000 -540 Descending Miami Center
01:47PM 26.1767 -80.0678 229° Southwest 228 262 6,000  Level Miami Center
01:48PM 26.1586 -80.1367 254° West 216 249 6,000  Level Miami Center
01:49PM 26.1528 -80.2058 265° West 222 255 6,000 -660 Level Miami Center
01:50PM 26.1492 -80.2706 266° West 213 245 4,700 -1,020 Descending Miami Center
01:51PM 26.1453 -80.3422 267° West 219 252 4,000 -360 Descending Miami Center
01:52PM 26.1419 -80.4022 266° West 197 227 4,000 -660 Level Miami Center
01:53PM 26.0964 -80.3869 163° South 206 237 2,700 -960 Descending Miami Center
01:54PM 26.0767 -80.3311 111° Southeast 190 219 2,100 -540 Descending Miami Center
01:55PM 26.0742 -80.2661 92° East 187 215 1,700 -660 Descending Miami Center
01:56PM 26.0753 -80.2106 89° East 174 200 800 -900 Descending Miami Center
01:58PM 26.0667 -80.1500 103° East  Level FlightAware Approximate
02:05PM 26.0726 -80.1527 103° East  Level Estimated